createdAt,value
2023-03-17T00:00:47.683Z,-2.95
2023-03-17T00:03:26.012Z,-2.97
2023-03-17T00:05:57.593Z,-2.98
2023-03-17T00:08:27.989Z,-2.99
2023-03-17T00:10:55.977Z,-3.00
2023-03-17T00:13:24.137Z,-3.00
2023-03-17T00:16:03.604Z,-3.01
2023-03-17T00:18:31.945Z,-3.01
2023-03-17T00:20:58.966Z,-3.00
2023-03-17T00:23:26.536Z,-3.01
2023-03-17T00:25:54.501Z,-3.05
2023-03-17T00:28:27.607Z,-3.08
2023-03-17T00:31:01.284Z,-3.10
2023-03-17T00:33:30.693Z,-3.11
2023-03-17T00:35:58.992Z,-3.12
2023-03-17T00:38:26.026Z,-3.15
2023-03-17T00:40:52.853Z,-3.17
2023-03-17T00:43:22.156Z,-3.19
2023-03-17T00:45:49.653Z,-3.22
2023-03-17T00:48:19.895Z,-3.25
2023-03-17T00:50:50.643Z,-3.27
2023-03-17T00:53:19.645Z,-3.26
2023-03-17T00:55:48.056Z,-3.27
2023-03-17T00:58:25.897Z,-3.28
2023-03-17T01:00:53.821Z,-3.30
2023-03-17T01:03:21.433Z,-3.31
2023-03-17T01:05:50.207Z,-3.33
2023-03-17T01:08:18.545Z,-3.35
2023-03-17T01:10:45.373Z,-3.32
2023-03-17T01:13:13.798Z,-3.28
2023-03-17T01:15:47.587Z,-3.25
2023-03-17T01:18:17.208Z,-3.24
2023-03-17T01:20:44.460Z,-3.22
2023-03-17T01:23:12.461Z,-3.23
2023-03-17T01:25:41.578Z,-3.25
2023-03-17T01:28:14.642Z,-3.26
2023-03-17T01:30:43.909Z,-3.28
2023-03-17T01:33:14.850Z,-3.28
2023-03-17T01:35:44.046Z,-3.26
2023-03-17T01:38:11.785Z,-3.26
2023-03-17T01:40:45.812Z,-3.27
2023-03-17T01:43:12.582Z,-3.30
2023-03-17T01:46:17.350Z,-3.33
2023-03-17T01:49:10.058Z,-3.34
2023-03-17T01:51:46.495Z,-3.37
2023-03-17T01:54:35.959Z,-3.41
2023-03-17T01:57:10.750Z,-3.44
2023-03-17T01:59:44.523Z,-3.46
2023-03-17T02:02:16.226Z,-3.46
2023-03-17T02:04:43.216Z,-3.46
2023-03-17T02:07:11.427Z,-3.49
2023-03-17T02:09:41.565Z,-3.53
2023-03-17T02:12:10.451Z,-3.56
2023-03-17T02:14:37.597Z,-3.58
2023-03-17T02:17:10.791Z,-3.59
2023-03-17T02:19:39.033Z,-3.59
2023-03-17T02:22:06.061Z,-3.60
2023-03-17T02:24:48.770Z,-3.61
2023-03-17T02:27:24.391Z,-3.62
2023-03-17T02:29:53.767Z,-3.63
2023-03-17T02:32:20.618Z,-3.63
2023-03-17T02:34:48.527Z,-3.62
2023-03-17T02:37:17.281Z,-3.60
2023-03-17T02:39:44.501Z,-3.59
2023-03-17T02:42:12.796Z,-3.58
2023-03-17T02:44:40.629Z,-3.59
2023-03-17T02:47:08.708Z,-3.60
2023-03-17T02:49:37.343Z,-3.61
2023-03-17T02:52:05.220Z,-3.61
2023-03-17T02:54:32.303Z,-3.61
2023-03-17T02:56:59.822Z,-3.60
2023-03-17T02:59:27.128Z,-3.60
2023-03-17T03:01:53.998Z,-3.60
2023-03-17T03:04:20.892Z,-3.61
2023-03-17T03:06:48.123Z,-3.61
2023-03-17T03:09:15.534Z,-3.61
2023-03-17T03:11:43.038Z,-3.60
2023-03-17T03:14:10.615Z,-3.62
2023-03-17T03:16:38.557Z,-3.63
2023-03-17T03:19:07.108Z,-3.65
2023-03-17T03:21:34.150Z,-3.67
2023-03-17T03:24:01.321Z,-3.71
2023-03-17T03:26:28.489Z,-3.72
2023-03-17T03:28:57.421Z,-3.71
2023-03-17T03:31:25.073Z,-3.70
2023-03-17T03:33:51.935Z,-3.70
2023-03-17T03:36:19.037Z,-3.70
2023-03-17T03:38:45.922Z,-3.69
2023-03-17T03:41:13.225Z,-3.68
2023-03-17T03:43:40.198Z,-3.68
2023-03-17T03:46:07.611Z,-3.68
2023-03-17T03:48:34.463Z,-3.68
2023-03-17T03:51:02.507Z,-3.70
2023-03-17T03:53:30.129Z,-3.72
2023-03-17T03:55:57.067Z,-3.75
2023-03-17T03:58:23.859Z,-3.78
2023-03-17T04:00:51.261Z,-3.77
2023-03-17T04:03:18.150Z,-3.76
2023-03-17T04:05:45.050Z,-3.76
2023-03-17T04:08:12.013Z,-3.77
2023-03-17T04:10:38.889Z,-3.79
2023-03-17T04:13:05.768Z,-3.81
2023-03-17T04:15:33.141Z,-3.84
2023-03-17T04:17:59.954Z,-3.87
2023-03-17T04:20:26.831Z,-3.89
2023-03-17T04:22:53.713Z,-3.91
2023-03-17T04:25:20.660Z,-3.92
2023-03-17T04:27:47.524Z,-3.94
2023-03-17T04:30:16.782Z,-3.95
2023-03-17T04:32:44.883Z,-3.96
2023-03-17T04:35:17.799Z,-3.99
2023-03-17T04:37:44.768Z,-4.00
2023-03-17T04:40:13.531Z,-3.99
2023-03-17T04:42:40.719Z,-3.98
2023-03-17T04:45:15.584Z,-3.96
2023-03-17T04:47:42.477Z,-3.94
2023-03-17T04:50:12.053Z,-3.92
2023-03-17T04:52:39.048Z,-3.91
2023-03-17T04:55:08.456Z,-3.89
2023-03-17T04:57:36.860Z,-3.87
2023-03-17T05:00:06.119Z,-3.83
2023-03-17T05:02:33.093Z,-3.80
2023-03-17T05:05:00.012Z,-3.75
2023-03-17T05:07:26.853Z,-3.71
2023-03-17T05:09:53.710Z,-3.68
2023-03-17T05:12:20.686Z,-3.66
2023-03-17T05:14:47.512Z,-3.65
2023-03-17T05:17:14.688Z,-3.63
2023-03-17T05:19:41.490Z,-3.59
2023-03-17T05:22:08.427Z,-3.53
2023-03-17T05:24:35.259Z,-3.48
2023-03-17T05:27:02.057Z,-3.44
2023-03-17T05:29:29.004Z,-3.39
2023-03-17T05:31:55.891Z,-3.34
2023-03-17T05:34:22.944Z,-3.25
2023-03-17T05:36:50.602Z,-3.16
2023-03-17T05:39:17.685Z,-3.07
2023-03-17T05:41:44.570Z,-2.98
2023-03-17T05:44:11.468Z,-2.85
2023-03-17T05:46:38.287Z,-2.53
2023-03-17T05:49:05.205Z,-1.97
2023-03-17T05:51:32.166Z,-1.33
2023-03-17T05:53:59.020Z,-0.64
2023-03-17T05:56:33.445Z,0.05
2023-03-17T05:59:01.915Z,0.86
2023-03-17T06:01:29.710Z,1.64
2023-03-17T06:03:56.769Z,2.41
2023-03-17T06:06:24.764Z,3.17
2023-03-17T06:08:51.852Z,3.88
2023-03-17T06:11:21.276Z,4.57
2023-03-17T06:13:48.551Z,5.27
2023-03-17T06:16:15.871Z,5.88
2023-03-17T06:18:42.920Z,6.52
2023-03-17T06:21:09.780Z,7.10
2023-03-17T06:23:36.731Z,7.61
2023-03-17T06:26:05.286Z,8.07
2023-03-17T06:28:32.350Z,8.54
2023-03-17T06:30:59.356Z,9.14
2023-03-17T06:33:26.345Z,9.25
2023-03-17T06:35:53.510Z,9.30
2023-03-17T06:38:20.970Z,9.86
2023-03-17T06:40:48.935Z,10.46
2023-03-17T06:43:15.832Z,10.45
2023-03-17T06:45:42.735Z,9.99
2023-03-17T06:48:09.608Z,9.29
2023-03-17T06:54:02.332Z,7.77
2023-03-17T06:56:30.509Z,7.17
2023-03-17T06:58:58.452Z,6.79
2023-03-17T07:01:27.570Z,7.08
2023-03-17T07:03:54.798Z,7.93
2023-03-17T07:06:23.510Z,8.11
2023-03-17T07:08:51.106Z,7.80
2023-03-17T07:11:17.997Z,7.29
2023-03-17T07:13:45.403Z,7.00
2023-03-17T07:16:14.067Z,6.73
2023-03-17T07:18:40.962Z,6.46
2023-03-17T07:21:08.164Z,6.30
2023-03-17T07:23:35.303Z,6.30
2023-03-17T07:26:02.690Z,6.21
2023-03-17T07:28:29.752Z,5.99
2023-03-17T07:30:58.205Z,5.83
2023-03-17T07:33:25.422Z,5.65
2023-03-17T07:35:54.358Z,5.44
2023-03-17T07:38:22.091Z,5.33
2023-03-17T07:40:49.408Z,5.36
2023-03-17T07:43:17.060Z,5.50
2023-03-17T07:45:44.966Z,5.64
2023-03-17T07:48:11.881Z,5.87
2023-03-17T07:50:39.056Z,6.35
2023-03-17T07:53:06.366Z,7.56
2023-03-17T07:57:32.886Z,10.07
2023-03-17T07:59:59.969Z,10.94
2023-03-17T08:02:27.142Z,11.71
2023-03-17T08:04:54.137Z,11.92
2023-03-17T08:07:21.031Z,12.45
2023-03-17T08:09:48.383Z,12.97
2023-03-17T08:12:15.384Z,13.14
2023-03-17T08:14:42.457Z,13.50
2023-03-17T08:17:09.496Z,13.74
2023-03-17T08:19:36.558Z,14.16
2023-03-17T08:22:03.513Z,14.80
2023-03-17T08:24:30.433Z,14.98
2023-03-17T08:26:59.752Z,15.11
2023-03-17T08:29:29.252Z,15.17
2023-03-17T08:31:57.474Z,15.31
2023-03-17T08:34:24.511Z,15.48
2023-03-17T08:36:51.849Z,15.47
2023-03-17T08:39:19.673Z,15.57
2023-03-17T08:41:47.146Z,15.66
2023-03-17T08:44:14.906Z,15.57
2023-03-17T08:46:42.012Z,15.71
2023-03-17T08:49:10.650Z,16.01
2023-03-17T08:51:38.827Z,16.05
2023-03-17T08:54:07.017Z,16.23
2023-03-17T08:56:34.468Z,16.22
2023-03-17T08:59:01.396Z,16.47
2023-03-17T09:01:28.403Z,16.57
2023-03-17T09:03:56.165Z,16.47
2023-03-17T09:06:23.713Z,16.65
2023-03-17T09:08:55.666Z,16.86
2023-03-17T09:11:29.444Z,17.02
2023-03-17T09:13:56.629Z,17.60
2023-03-17T09:16:24.913Z,17.85
2023-03-17T09:18:52.142Z,18.29
2023-03-17T09:21:19.499Z,19.23
2023-03-17T09:23:47.103Z,19.82
2023-03-17T09:26:14.064Z,19.66
2023-03-17T09:28:40.975Z,19.64
2023-03-17T09:31:11.771Z,19.48
2023-03-17T09:33:39.924Z,19.03
2023-03-17T09:36:08.132Z,18.77
2023-03-17T09:38:36.244Z,18.65
2023-03-17T09:41:23.977Z,19.12
2023-03-17T09:44:18.137Z,19.46
2023-03-17T09:46:48.038Z,19.37
2023-03-17T09:49:25.329Z,19.76
2023-03-17T09:51:53.493Z,19.16
2023-03-17T09:54:23.084Z,18.95
2023-03-17T09:57:01.890Z,19.56
2023-03-17T09:59:40.698Z,19.14
2023-03-17T10:02:17.527Z,18.82
2023-03-17T10:04:47.174Z,19.22
2023-03-17T10:07:20.562Z,18.85
2023-03-17T10:10:01.041Z,18.39
2023-03-17T10:12:54.017Z,18.53
2023-03-17T10:15:28.049Z,19.08
2023-03-17T10:17:55.008Z,18.55
2023-03-17T10:20:36.561Z,18.26
2023-03-17T10:23:07.312Z,18.05
2023-03-17T10:25:36.605Z,17.97
2023-03-17T10:28:12.468Z,17.48
2023-03-17T10:30:40.052Z,16.99
2023-03-17T10:33:07.327Z,16.66
2023-03-17T10:35:36.746Z,16.76
2023-03-17T10:38:20.049Z,17.05
2023-03-17T10:41:09.987Z,17.43
2023-03-17T10:43:50.787Z,17.45
2023-03-17T10:46:25.962Z,17.48
2023-03-17T10:49:17.032Z,17.58
2023-03-17T10:51:46.772Z,17.17
2023-03-17T10:54:18.072Z,17.45
2023-03-17T10:56:49.135Z,17.77
2023-03-17T10:59:44.333Z,18.02
2023-03-17T11:02:24.384Z,18.10
2023-03-17T11:04:55.886Z,18.30
2023-03-17T11:07:38.325Z,17.86
2023-03-17T11:10:24.826Z,17.31
2023-03-17T11:13:00.691Z,16.89
2023-03-17T11:15:37.252Z,17.00
2023-03-17T11:18:14.078Z,17.37
2023-03-17T11:20:47.064Z,18.21
2023-03-17T11:23:48.401Z,18.64
2023-03-17T11:26:46.630Z,18.71
2023-03-17T11:29:24.634Z,18.43
2023-03-17T11:32:12.151Z,18.46
2023-03-17T11:35:27.457Z,18.07
2023-03-17T11:38:24.861Z,17.65
2023-03-17T11:41:09.177Z,17.13
2023-03-17T11:43:59.695Z,16.76
2023-03-17T11:47:03.282Z,16.79
2023-03-17T11:49:38.993Z,16.83
2023-03-17T11:52:11.441Z,16.76
2023-03-17T11:54:47.594Z,16.35
2023-03-17T11:57:24.066Z,16.36
2023-03-17T12:00:04.214Z,16.53
2023-03-17T12:02:45.761Z,16.11
2023-03-17T12:05:38.602Z,15.75
2023-03-17T12:08:14.255Z,15.46
2023-03-17T12:10:49.643Z,15.68
2023-03-17T12:13:19.590Z,15.48
2023-03-17T12:16:06.866Z,15.04
2023-03-17T12:18:52.944Z,14.76
2023-03-17T12:21:33.037Z,14.77
2023-03-17T12:24:05.968Z,15.01
2023-03-17T12:26:32.831Z,14.93
2023-03-17T12:29:07.135Z,14.75
2023-03-17T12:31:58.801Z,14.50
2023-03-17T12:34:42.075Z,14.34
2023-03-17T12:37:09.945Z,14.50
2023-03-17T12:39:38.097Z,14.13
2023-03-17T12:42:21.976Z,13.79
2023-03-17T12:45:27.745Z,13.58
2023-03-17T12:48:23.926Z,13.46
2023-03-17T12:50:50.888Z,13.56
2023-03-17T12:53:53.207Z,13.49
2023-03-17T12:56:32.316Z,13.12
2023-03-17T12:59:06.354Z,12.95
2023-03-17T13:01:39.066Z,12.74
2023-03-17T13:04:08.774Z,12.54
2023-03-17T13:07:14.677Z,12.45
2023-03-17T13:09:45.302Z,12.21
2023-03-17T13:12:37.140Z,12.12
2023-03-17T13:15:47.227Z,12.05
2023-03-17T13:18:14.088Z,12.16
2023-03-17T13:20:51.736Z,12.27
2023-03-17T13:23:23.900Z,12.25
2023-03-17T13:25:53.905Z,12.01
2023-03-17T13:28:42.052Z,11.95
2023-03-17T13:31:27.268Z,12.20
2023-03-17T13:33:57.775Z,12.50
2023-03-17T13:36:40.094Z,12.65
2023-03-17T13:39:29.656Z,12.57
2023-03-17T13:42:18.817Z,12.70
2023-03-17T13:45:09.526Z,12.61
2023-03-17T13:47:44.512Z,12.60
2023-03-17T13:50:31.197Z,12.56
2023-03-17T13:53:03.810Z,12.38
2023-03-17T13:55:37.273Z,12.12
2023-03-17T13:58:11.832Z,11.84
2023-03-17T14:00:42.571Z,11.49
2023-03-17T14:03:20.692Z,11.22
2023-03-17T14:05:50.935Z,11.06
2023-03-17T14:08:35.832Z,10.72
2023-03-17T14:11:09.022Z,10.46
2023-03-17T14:13:53.082Z,10.31
2023-03-17T14:16:30.419Z,10.09
2023-03-17T14:19:12.246Z,9.82
2023-03-17T14:21:39.109Z,9.56
2023-03-17T14:24:21.542Z,9.34
2023-03-17T14:26:50.631Z,9.18
2023-03-17T14:29:21.444Z,9.11
2023-03-17T14:32:02.545Z,9.08
2023-03-17T14:34:30.091Z,9.11
2023-03-17T14:37:04.851Z,9.13
2023-03-17T14:39:32.359Z,9.02
2023-03-17T14:42:05.252Z,8.98
2023-03-17T14:44:44.112Z,9.02
2023-03-17T14:47:32.717Z,9.02
2023-03-17T14:50:02.862Z,8.87
2023-03-17T14:52:33.102Z,8.75
2023-03-17T14:55:01.157Z,8.65
2023-03-17T14:57:33.163Z,8.56
2023-03-17T15:00:34.343Z,8.48
2023-03-17T15:03:05.531Z,8.39
2023-03-17T15:05:40.917Z,8.30
2023-03-17T15:08:36.538Z,8.23
2023-03-17T15:11:06.004Z,8.17
2023-03-17T15:13:36.716Z,8.12
2023-03-17T15:16:33.851Z,8.08
2023-03-17T15:19:17.369Z,8.02
2023-03-17T15:21:44.592Z,7.95
2023-03-17T15:24:52.105Z,7.90
2023-03-17T15:27:19.249Z,7.85
2023-03-17T15:29:47.562Z,7.81
2023-03-17T15:32:20.472Z,7.79
2023-03-17T15:34:48.868Z,7.75
2023-03-17T15:37:23.134Z,7.72
2023-03-17T15:39:51.581Z,7.72
2023-03-17T15:42:20.448Z,7.71
2023-03-17T15:44:47.595Z,7.72
2023-03-17T15:47:16.947Z,7.71
2023-03-17T15:49:45.052Z,7.69
2023-03-17T15:52:21.999Z,7.67
2023-03-17T15:54:49.748Z,7.65
2023-03-17T15:57:17.397Z,7.62
2023-03-17T15:59:45.168Z,7.57
2023-03-17T16:02:25.224Z,7.55
2023-03-17T16:04:52.670Z,7.50
2023-03-17T16:07:21.453Z,7.43
2023-03-17T16:09:49.031Z,7.39
2023-03-17T16:12:16.244Z,7.35
2023-03-17T16:14:43.225Z,7.27
2023-03-17T16:17:20.249Z,7.20
2023-03-17T16:19:48.171Z,7.12
2023-03-17T16:22:43.178Z,7.02
2023-03-17T16:25:30.979Z,6.93
2023-03-17T16:28:00.446Z,6.82
2023-03-17T16:30:33.107Z,6.72
2023-03-17T16:33:16.065Z,6.62
2023-03-17T16:35:43.752Z,6.53
2023-03-17T16:38:17.826Z,6.43
2023-03-17T16:40:52.010Z,6.33
2023-03-17T16:43:25.592Z,6.21
2023-03-17T16:45:55.719Z,6.13
2023-03-17T16:48:22.615Z,6.05
2023-03-17T16:50:50.561Z,5.95
2023-03-17T16:53:17.848Z,5.85
2023-03-17T16:55:46.091Z,5.76
2023-03-17T16:58:31.590Z,5.68
2023-03-17T17:01:06.529Z,5.60
2023-03-17T17:03:33.708Z,5.54
2023-03-17T17:06:00.614Z,5.47
2023-03-17T17:08:27.636Z,5.40
2023-03-17T17:10:54.586Z,5.33
2023-03-17T17:13:21.671Z,5.28
2023-03-17T17:15:49.055Z,5.20
2023-03-17T17:18:20.752Z,5.11
2023-03-17T17:20:49.327Z,5.02
2023-03-17T17:23:22.214Z,4.95
2023-03-17T17:25:50.478Z,4.89
2023-03-17T17:28:19.545Z,4.82
2023-03-17T17:30:48.244Z,4.77
2023-03-17T17:33:17.125Z,4.70
2023-03-17T17:35:45.223Z,4.63
2023-03-17T17:38:26.844Z,4.55
2023-03-17T17:40:56.107Z,4.48
2023-03-17T17:43:24.806Z,4.42
2023-03-17T17:45:52.158Z,4.36
2023-03-17T17:48:22.831Z,4.30
2023-03-17T17:50:51.288Z,4.24
2023-03-17T17:53:18.780Z,4.18
2023-03-17T17:55:48.409Z,4.12
2023-03-17T17:58:18.111Z,4.06
2023-03-17T18:00:45.502Z,4.00
2023-03-17T18:03:12.645Z,3.94
2023-03-17T18:05:40.063Z,3.90
2023-03-17T18:08:07.080Z,3.85
2023-03-17T18:10:34.739Z,3.80
2023-03-17T18:13:04.521Z,3.75
2023-03-17T18:15:31.921Z,3.70
2023-03-17T18:17:58.935Z,3.65
2023-03-17T18:20:26.486Z,3.62
2023-03-17T18:22:54.375Z,3.58
2023-03-17T18:25:21.461Z,3.54
2023-03-17T18:27:48.744Z,3.51
2023-03-17T18:30:25.326Z,3.48
2023-03-17T18:33:02.657Z,3.46
2023-03-17T18:35:29.793Z,3.43
2023-03-17T18:37:59.532Z,3.40
2023-03-17T18:40:26.647Z,3.38
2023-03-17T18:42:54.119Z,3.38
2023-03-17T18:45:21.652Z,3.37
2023-03-17T18:47:48.617Z,3.37
2023-03-17T18:50:16.650Z,3.37
2023-03-17T18:52:45.381Z,3.40
2023-03-17T18:55:13.882Z,3.40
2023-03-17T18:57:44.321Z,3.42
2023-03-17T19:00:14.628Z,3.45
2023-03-17T19:02:41.441Z,3.48
2023-03-17T19:05:10.748Z,3.47
2023-03-17T19:07:40.201Z,3.49
2023-03-17T19:10:08.842Z,3.50
2023-03-17T19:12:36.566Z,3.51
2023-03-17T19:15:04.514Z,3.52
2023-03-17T19:17:31.740Z,3.54
2023-03-17T19:19:58.983Z,3.55
2023-03-17T19:22:26.292Z,3.53
2023-03-17T19:24:53.656Z,3.51
2023-03-17T19:27:20.861Z,3.50
2023-03-17T19:29:47.854Z,3.48
2023-03-17T19:32:16.295Z,3.50
2023-03-17T19:34:43.286Z,3.56
2023-03-17T19:37:10.293Z,3.57
2023-03-17T19:39:38.135Z,3.58
2023-03-17T19:42:05.345Z,3.60
2023-03-17T19:44:32.509Z,3.60
2023-03-17T19:47:01.818Z,3.62
2023-03-17T19:49:28.873Z,3.62
2023-03-17T19:51:56.718Z,3.64
2023-03-17T19:54:23.696Z,3.65
2023-03-17T19:56:50.786Z,3.68
2023-03-17T19:59:19.821Z,3.72
2023-03-17T20:01:49.339Z,3.74
2023-03-17T20:04:22.052Z,3.74
2023-03-17T20:06:55.397Z,3.69
2023-03-17T20:09:24.977Z,3.66
2023-03-17T20:11:53.587Z,3.67
2023-03-17T20:14:21.102Z,3.68
2023-03-17T20:16:48.803Z,3.67
2023-03-17T20:19:16.947Z,3.66
2023-03-17T20:21:44.253Z,3.64
2023-03-17T20:24:12.927Z,3.62
2023-03-17T20:26:41.561Z,3.60
2023-03-17T20:29:08.635Z,3.58
2023-03-17T20:31:36.167Z,3.59
2023-03-17T20:34:03.547Z,3.58
2023-03-17T20:36:30.525Z,3.57
2023-03-17T20:38:58.741Z,3.58
2023-03-17T20:41:25.960Z,3.59
2023-03-17T20:43:53.462Z,3.58
2023-03-17T20:46:26.716Z,3.57
2023-03-17T20:48:59.057Z,3.54
2023-03-17T20:51:26.797Z,3.50
2023-03-17T20:53:55.353Z,3.48
2023-03-17T20:56:24.498Z,3.46
2023-03-17T20:58:53.425Z,3.42
2023-03-17T21:01:21.622Z,3.43
2023-03-17T21:03:49.858Z,3.41
2023-03-17T21:06:17.894Z,3.41
2023-03-17T21:08:46.273Z,3.41
2023-03-17T21:11:21.102Z,3.41
2023-03-17T21:13:48.037Z,3.39
2023-03-17T21:16:21.446Z,3.35
2023-03-17T21:18:48.986Z,3.34
2023-03-17T21:21:16.864Z,3.34
2023-03-17T21:23:44.294Z,3.33
2023-03-17T21:26:12.413Z,3.30
2023-03-17T21:28:41.526Z,3.29
2023-03-17T21:31:10.661Z,3.27
2023-03-17T21:33:38.246Z,3.25
2023-03-17T21:36:06.075Z,3.26
2023-03-17T21:38:33.188Z,3.28
2023-03-17T21:41:22.491Z,3.27
2023-03-17T21:43:49.538Z,3.24
2023-03-17T21:46:16.751Z,3.24
2023-03-17T21:48:44.227Z,3.25
2023-03-17T21:51:11.674Z,3.21
2023-03-17T21:53:39.412Z,3.16
2023-03-17T21:56:06.765Z,3.13
2023-03-17T21:58:35.311Z,3.12
2023-03-17T22:01:03.385Z,3.13
2023-03-17T22:03:32.371Z,3.11
2023-03-17T22:05:59.887Z,3.10
2023-03-17T22:08:26.958Z,3.07
2023-03-17T22:10:54.084Z,3.06
2023-03-17T22:13:21.226Z,3.03
2023-03-17T22:15:48.854Z,3.02
2023-03-17T22:18:16.091Z,3.02
2023-03-17T22:20:45.054Z,3.00
2023-03-17T22:23:12.086Z,2.97
2023-03-17T22:25:39.102Z,2.98
2023-03-17T22:28:06.641Z,2.99
2023-03-17T22:30:33.955Z,3.00
2023-03-17T22:33:01.245Z,2.98
2023-03-17T22:35:28.576Z,2.94
2023-03-17T22:37:55.470Z,2.91
2023-03-17T22:40:22.722Z,2.87
2023-03-17T22:42:49.626Z,2.84
2023-03-17T22:45:16.712Z,2.84
2023-03-17T22:47:43.799Z,2.85
2023-03-17T22:50:11.941Z,2.86
2023-03-17T22:52:38.859Z,2.83
2023-03-17T22:55:07.872Z,2.79
2023-03-17T22:57:35.271Z,2.78
2023-03-17T23:00:05.649Z,2.77
2023-03-17T23:02:32.625Z,2.76
2023-03-17T23:04:59.489Z,2.75
2023-03-17T23:07:27.696Z,2.72
2023-03-17T23:09:55.223Z,2.72
2023-03-17T23:12:24.633Z,2.71
2023-03-17T23:14:51.678Z,2.71
2023-03-17T23:17:18.886Z,2.72
2023-03-17T23:19:46.449Z,2.74
2023-03-17T23:22:13.279Z,2.74
2023-03-17T23:24:40.279Z,2.72
2023-03-17T23:27:07.194Z,2.71
2023-03-17T23:29:34.153Z,2.71
2023-03-17T23:32:01.398Z,2.70
2023-03-17T23:34:28.599Z,2.72
2023-03-17T23:36:55.570Z,2.74
2023-03-17T23:39:22.395Z,2.77
2023-03-17T23:41:49.603Z,2.79
2023-03-17T23:44:16.642Z,2.78
2023-03-17T23:46:45.284Z,2.77
2023-03-17T23:49:12.371Z,2.76
2023-03-17T23:51:39.320Z,2.76
2023-03-17T23:54:07.796Z,2.75
2023-03-17T23:56:35.032Z,2.76
2023-03-17T23:59:04.003Z,2.77
